Huntsville Municipal Airport Huntsville US
ICAO: KUTS
IATA: UTS
Category: Medium
Scheduled Services: No

Elevation: 363 ft
TransAlt. 18000 ft.

Airport Communications:
ASOS:119.425
HOUSTON CNTR:134.8
MONTGOMERY CO RDO:122.3
CTAF/UNICOM:122.8

KUTS Zoom In..

Runways:

(A) RW 18 length 5005 ft width 100 ft
---- / hdg 180

(B) RW 36 length 5005 ft width 100 ft
---- / hdg 360

Location; KUTS
Day. 26 / Time. 03.53 Zulu
* Altimeter: 29.86
* Temperature: 27° c. 80.6°f.
* Wind from: VRB° Speed 03 kn.
Dewpoint: 22° c.
Visibility: 10 Statute Miles.
Clouds: Clear (automated report).

KUTS 260353Z AUTO VRB03KT 10SM CLR 27/22 A2986 RMK AO2 SLP107 T02670222


Wind From VRB°
Speed 03 kn.

 
 
jpsmedia.com for Web Design SOUNDCLOUD worldairports.se 2018   terms of use